Главная страница
METAR-TAF:

METAR-TAF

Аэропорты :

Гардермуэн

Осло, Норвегия

широта: 60-12N, долгота: 011-05E, высота над уровнем моря: 208 м

Текущие метеонаблюдения

Эта сводка был подготовлена 38 минут назад, в 21:50 UTC
Ветер 2 Узел переменных направлений
Температура 1°C
Влажность 80%
Давление 1022 hPa
Видимость 10 км и более
Нет облачности ниже 1500 м, и нет кучево-дождевой облачности

METAR: ENGM 182150Z VRB02KT CAVOK 01/M02 Q1022

Время: 00:28 (22:28 UTC)

Прогноз

Прогноз действительный с 18-го 18 UTC до 19-го 18 UTC
Ветер 5 Узел от северно-северо-западный
Видимость 10 км и более
Нет облачности ниже 1500 м, и нет кучево-дождевой облачности

TAF: ENGM 1818/1918 33005KT CAVOK

Метеонаблюдения и прогнозы для более 4000 аэропортов (сводки METAR и TAF).

Имеющиеся станции представлены на карте желтыми и красными точками.

Чтобы увидеть название станции, наведите на нее мышь.

Затем щелкните, чтобы увидеть метеонаблюдения и метеопрогнозы.

Управление картой: чтобы увеличить масштаб, щелкните зеленые кнопки с черным крестиком; чтобы уменьшить масштаб, щелкните зеленую кнопку с тире; для просмотра соседних карт щелкайте зеленые стрелки.


METAR-TAF: